createdAt,value
2022-08-02T00:00:10.169Z,21.08
2022-08-02T00:02:37.486Z,21.11
2022-08-02T00:05:05.087Z,21.11
2022-08-02T00:07:32.794Z,21.12
2022-08-02T00:10:01.118Z,21.12
2022-08-02T00:12:27.891Z,21.11
2022-08-02T00:14:54.660Z,21.10
2022-08-02T00:17:21.402Z,21.09
2022-08-02T00:19:48.162Z,21.07
2022-08-02T00:22:15.149Z,21.05
2022-08-02T00:24:42.132Z,21.03
2022-08-02T00:27:09.658Z,21.03
2022-08-02T00:29:51.960Z,21.02
2022-08-02T00:32:21.831Z,21.02
2022-08-02T00:34:48.638Z,21.04
2022-08-02T00:37:15.409Z,21.04
2022-08-02T00:39:42.969Z,21.03
2022-08-02T00:42:10.196Z,21.04
2022-08-02T00:44:37.226Z,21.03
2022-08-02T00:47:04.054Z,21.05
2022-08-02T00:49:30.949Z,21.02
2022-08-02T00:52:00.552Z,21.00
2022-08-02T00:54:27.535Z,20.98
2022-08-02T00:56:54.628Z,20.94
2022-08-02T01:01:57.660Z,20.90
2022-08-02T01:04:26.732Z,20.85
2022-08-02T01:06:57.562Z,20.79
2022-08-02T01:09:24.278Z,20.80
2022-08-02T01:11:51.028Z,20.80
2022-08-02T01:14:17.872Z,20.78
2022-08-02T01:16:54.018Z,20.79
2022-08-02T01:19:26.530Z,20.79
2022-08-02T01:22:18.129Z,20.79
2022-08-02T01:25:10.789Z,20.81
2022-08-02T01:27:43.670Z,20.80
2022-08-02T01:30:10.452Z,20.80
2022-08-02T01:32:40.181Z,20.80
2022-08-02T01:35:12.076Z,20.81
2022-08-02T01:37:47.711Z,20.81
2022-08-02T01:40:16.846Z,20.82
2022-08-02T01:42:46.301Z,20.83
2022-08-02T01:45:13.136Z,20.83
2022-08-02T01:47:40.330Z,20.84
2022-08-02T01:50:07.685Z,20.85
2022-08-02T01:52:37.821Z,20.83
2022-08-02T01:55:06.462Z,20.82
2022-08-02T01:57:53.039Z,20.82
2022-08-02T02:00:20.271Z,20.82
2022-08-02T02:02:47.964Z,20.79
2022-08-02T02:05:16.044Z,20.80
2022-08-02T02:07:43.230Z,20.74
2022-08-02T02:10:12.304Z,20.75
2022-08-02T02:12:39.732Z,20.73
2022-08-02T02:15:08.293Z,20.68
2022-08-02T02:18:11.579Z,20.67
2022-08-02T02:20:21.737Z,20.67
2022-08-02T02:22:49.858Z,20.65
2022-08-02T02:25:18.536Z,20.63
2022-08-02T02:28:05.409Z,20.60
2022-08-02T02:30:32.694Z,20.59
2022-08-02T02:33:01.404Z,20.57
2022-08-02T02:35:29.742Z,20.55
2022-08-02T02:37:56.490Z,20.54
2022-08-02T02:40:24.132Z,20.51
2022-08-02T02:42:51.379Z,20.48
2022-08-02T02:45:18.981Z,20.46
2022-08-02T02:47:46.248Z,20.45
2022-08-02T02:50:13.106Z,20.46
2022-08-02T02:52:40.281Z,20.43
2022-08-02T02:55:08.279Z,20.44
2022-08-02T02:57:35.748Z,20.40
2022-08-02T03:00:05.146Z,20.37
2022-08-02T03:02:31.892Z,20.36
2022-08-02T03:04:58.733Z,20.35
2022-08-02T03:07:26.321Z,20.33
2022-08-02T03:09:53.894Z,20.31
2022-08-02T03:12:30.523Z,20.30
2022-08-02T03:15:00.046Z,20.30
2022-08-02T03:17:26.827Z,20.31
2022-08-02T03:19:53.613Z,20.33
2022-08-02T03:22:20.350Z,20.34
2022-08-02T03:24:47.114Z,20.36
2022-08-02T03:27:13.838Z,20.37
2022-08-02T03:29:40.589Z,20.39
2022-08-02T03:32:07.314Z,20.38
2022-08-02T03:34:34.104Z,20.40
2022-08-02T03:37:00.864Z,20.41
2022-08-02T03:39:27.638Z,20.43
2022-08-02T03:41:54.661Z,20.43
2022-08-02T03:44:21.462Z,20.43
2022-08-02T03:46:48.200Z,20.44
2022-08-02T03:49:15.027Z,20.45
2022-08-02T03:51:41.795Z,20.44
2022-08-02T03:54:08.528Z,20.46
2022-08-02T03:56:35.291Z,20.46
2022-08-02T03:59:09.057Z,20.46
2022-08-02T04:01:35.785Z,20.48
2022-08-02T04:04:02.543Z,20.50
2022-08-02T04:06:29.292Z,20.49
2022-08-02T04:08:56.039Z,20.49
2022-08-02T04:11:31.907Z,20.49
2022-08-02T04:14:03.287Z,20.49
2022-08-02T04:16:43.235Z,20.45
2022-08-02T04:19:14.631Z,20.44
2022-08-02T04:21:50.099Z,20.42
2022-08-02T04:24:20.830Z,20.39
2022-08-02T04:26:53.114Z,20.35
2022-08-02T04:29:20.029Z,20.33
2022-08-02T04:31:46.780Z,20.30
2022-08-02T04:34:15.467Z,20.29
2022-08-02T04:36:43.168Z,20.28
2022-08-02T04:39:10.163Z,20.27
2022-08-02T04:41:44.542Z,20.26
2022-08-02T04:44:12.241Z,20.23
2022-08-02T04:46:39.510Z,20.21
2022-08-02T04:49:06.591Z,20.19
2022-08-02T04:51:37.740Z,20.20
2022-08-02T04:54:09.585Z,20.19
2022-08-02T04:56:38.081Z,20.19
2022-08-02T04:59:05.309Z,20.18
2022-08-02T05:01:32.399Z,20.17
2022-08-02T05:03:59.356Z,20.17
2022-08-02T05:06:26.131Z,20.15
2022-08-02T05:08:53.642Z,20.10
2022-08-02T05:11:22.108Z,20.04
2022-08-02T05:13:57.678Z,19.99
2022-08-02T05:16:31.476Z,19.96
2022-08-02T05:19:00.138Z,19.90
2022-08-02T05:21:27.025Z,19.85
2022-08-02T05:23:53.795Z,19.80
2022-08-02T05:26:20.558Z,19.75
2022-08-02T05:28:47.300Z,19.69
2022-08-02T05:31:14.088Z,19.65
2022-08-02T05:33:40.861Z,19.62
2022-08-02T05:36:09.444Z,19.58
2022-08-02T05:38:37.613Z,19.58
2022-08-02T05:41:07.902Z,19.55
2022-08-02T05:43:34.692Z,19.54
2022-08-02T05:46:01.496Z,19.52
2022-08-02T05:48:31.845Z,19.51
2022-08-02T05:51:04.102Z,19.50
2022-08-02T05:53:36.450Z,19.48
2022-08-02T05:56:18.766Z,19.46
2022-08-02T05:59:04.643Z,19.43
2022-08-02T06:01:37.910Z,19.39
2022-08-02T06:04:06.563Z,19.37
2022-08-02T06:06:33.478Z,19.35
2022-08-02T06:09:09.059Z,19.36
2022-08-02T06:11:37.267Z,19.35
2022-08-02T06:14:05.441Z,19.35
2022-08-02T06:16:33.033Z,19.33
2022-08-02T06:19:08.931Z,19.33
2022-08-02T06:22:35.417Z,19.29
2022-08-02T06:24:22.407Z,19.26
2022-08-02T06:26:52.737Z,19.21
2022-08-02T06:29:20.800Z,19.24
2022-08-02T06:31:51.099Z,19.24
2022-08-02T06:34:17.863Z,19.26
2022-08-02T06:36:52.171Z,19.26
2022-08-02T06:39:37.627Z,19.27
2022-08-02T06:42:07.675Z,19.27
2022-08-02T06:44:47.987Z,19.26
2022-08-02T06:47:16.612Z,19.26
2022-08-02T06:49:51.681Z,19.24
2022-08-02T06:52:27.110Z,19.20
2022-08-02T06:54:56.467Z,19.21
2022-08-02T06:57:23.286Z,19.22
2022-08-02T06:59:50.025Z,19.22
2022-08-02T07:02:16.864Z,19.24
2022-08-02T07:04:43.613Z,19.25
2022-08-02T07:07:10.354Z,19.25
2022-08-02T07:09:37.114Z,19.24
2022-08-02T07:12:04.411Z,19.24
2022-08-02T07:14:31.365Z,19.21
2022-08-02T07:16:59.510Z,19.20
2022-08-02T07:19:31.910Z,19.17
2022-08-02T07:22:05.411Z,19.13
2022-08-02T07:24:32.233Z,19.12
2022-08-02T07:27:11.346Z,19.11
2022-08-02T07:29:45.974Z,19.12
2022-08-02T07:32:25.525Z,19.11
2022-08-02T07:34:55.014Z,19.08
2022-08-02T07:37:55.692Z,19.08
2022-08-02T07:40:19.602Z,19.05
2022-08-02T07:43:05.533Z,19.02
2022-08-02T07:45:32.778Z,19.00
2022-08-02T07:48:02.661Z,18.98
2022-08-02T07:50:30.057Z,18.92
2022-08-02T07:52:57.781Z,18.91
2022-08-02T07:55:39.405Z,18.89
2022-08-02T07:58:11.492Z,18.87
2022-08-02T08:00:40.720Z,18.87
2022-08-02T08:03:07.575Z,18.84
2022-08-02T08:05:34.374Z,18.86
2022-08-02T08:08:01.227Z,18.88
2022-08-02T08:10:28.203Z,18.88
2022-08-02T08:12:55.319Z,18.89
2022-08-02T08:15:22.143Z,18.92
2022-08-02T08:17:49.145Z,18.93
2022-08-02T08:20:16.169Z,18.95
2022-08-02T08:22:42.966Z,18.98
2022-08-02T08:25:12.683Z,18.99
2022-08-02T08:27:52.012Z,19.01
2022-08-02T08:30:19.595Z,19.05
2022-08-02T08:32:46.374Z,19.08
2022-08-02T08:35:13.874Z,19.14
2022-08-02T08:37:40.639Z,19.18
2022-08-02T08:40:09.242Z,19.22
2022-08-02T08:42:37.231Z,19.25
2022-08-02T08:45:04.351Z,19.28
2022-08-02T08:47:35.028Z,19.30
2022-08-02T08:50:03.788Z,19.30
2022-08-02T08:52:30.528Z,19.29
2022-08-02T08:54:57.260Z,19.28
2022-08-02T08:57:26.248Z,19.26
2022-08-02T08:59:53.037Z,19.24
2022-08-02T09:02:24.753Z,19.21
2022-08-02T09:04:55.469Z,19.20
2022-08-02T09:07:23.334Z,19.20
2022-08-02T09:09:50.121Z,19.21
2022-08-02T09:12:17.871Z,19.22
2022-08-02T09:14:49.903Z,19.22
2022-08-02T09:17:17.208Z,19.23
2022-08-02T09:19:45.890Z,19.24
2022-08-02T09:22:14.798Z,19.26
2022-08-02T09:24:47.240Z,19.28
2022-08-02T09:27:16.079Z,19.28
2022-08-02T09:30:11.476Z,19.25
2022-08-02T09:32:45.221Z,19.23
2022-08-02T09:35:12.014Z,19.23
2022-08-02T09:37:38.793Z,19.19
2022-08-02T09:40:07.013Z,19.15
2022-08-02T09:42:34.605Z,19.13
2022-08-02T09:45:02.128Z,19.07
2022-08-02T09:47:31.041Z,19.07
2022-08-02T09:49:58.515Z,19.06
2022-08-02T09:52:37.440Z,19.03
2022-08-02T09:55:11.437Z,19.00
2022-08-02T09:57:38.609Z,19.00
2022-08-02T10:00:14.937Z,18.98
2022-08-02T10:03:34.887Z,18.97
2022-08-02T10:06:03.057Z,18.99
2022-08-02T10:08:32.910Z,19.00
2022-08-02T10:11:00.885Z,19.01
2022-08-02T10:13:31.839Z,19.02
2022-08-02T10:15:58.717Z,19.01
2022-08-02T10:18:38.106Z,19.00
2022-08-02T10:21:40.937Z,18.99
2022-08-02T10:24:12.178Z,19.00
2022-08-02T10:26:43.488Z,19.03
2022-08-02T10:29:10.468Z,19.02
2022-08-02T10:31:41.914Z,19.05
2022-08-02T10:34:11.769Z,19.07
2022-08-02T10:36:40.171Z,19.07
2022-08-02T10:39:07.133Z,19.05
2022-08-02T10:41:52.661Z,19.03
2022-08-02T10:44:24.038Z,19.03
2022-08-02T10:46:52.144Z,19.03
2022-08-02T10:52:07.491Z,19.07
2022-08-02T10:54:42.304Z,19.08
2022-08-02T10:57:22.351Z,19.09
2022-08-02T10:59:50.640Z,19.10
2022-08-02T11:02:34.961Z,19.10
2022-08-02T11:05:08.400Z,19.07
2022-08-02T11:07:49.175Z,19.06
2022-08-02T11:10:29.092Z,19.06
2022-08-02T11:13:08.987Z,19.07
2022-08-02T11:15:50.840Z,19.10
2022-08-02T11:18:17.947Z,19.13
2022-08-02T11:20:44.889Z,19.14
2022-08-02T11:23:44.585Z,19.16
2022-08-02T11:26:30.987Z,19.17
2022-08-02T11:28:58.972Z,19.17
2022-08-02T11:31:25.938Z,19.19
2022-08-02T11:33:52.775Z,19.21
2022-08-02T11:36:19.549Z,19.24
2022-08-02T11:38:49.688Z,19.26
2022-08-02T11:41:45.878Z,19.26
2022-08-02T11:44:09.765Z,19.27
2022-08-02T11:46:37.044Z,19.26
2022-08-02T11:49:18.361Z,19.26
2022-08-02T11:52:05.444Z,19.25
2022-08-02T11:54:36.908Z,19.24
2022-08-02T11:57:13.401Z,19.25
2022-08-02T11:59:42.976Z,19.28
2022-08-02T12:02:10.257Z,19.30
2022-08-02T12:04:37.275Z,19.30
2022-08-02T12:07:05.895Z,19.30
2022-08-02T12:09:39.226Z,19.28
2022-08-02T12:12:07.788Z,19.27
2022-08-02T12:14:34.564Z,19.27
2022-08-02T12:17:19.838Z,19.27
2022-08-02T12:19:47.945Z,19.25
2022-08-02T12:22:19.401Z,19.23
2022-08-02T12:24:52.593Z,19.23
2022-08-02T12:27:36.267Z,19.25
2022-08-02T12:30:13.205Z,19.28
2022-08-02T12:32:40.006Z,19.30
2022-08-02T12:35:26.468Z,19.31
2022-08-02T12:37:54.067Z,19.33
2022-08-02T12:40:25.125Z,19.35
2022-08-02T12:42:54.873Z,19.35
2022-08-02T12:45:21.675Z,19.35
2022-08-02T12:47:50.922Z,19.35
2022-08-02T12:50:21.698Z,19.34
2022-08-02T12:52:48.965Z,19.31
2022-08-02T12:55:24.233Z,19.32
2022-08-02T12:58:02.459Z,19.30
2022-08-02T13:00:31.279Z,19.29
2022-08-02T13:02:58.326Z,19.30
2022-08-02T13:05:25.528Z,19.30
2022-08-02T13:07:52.468Z,19.29
2022-08-02T13:10:19.480Z,19.29
2022-08-02T13:12:46.329Z,19.29
2022-08-02T13:15:50.144Z,19.29
2022-08-02T13:19:01.098Z,19.31
2022-08-02T13:21:40.040Z,19.28
2022-08-02T13:24:33.010Z,19.29
2022-08-02T13:26:55.648Z,19.29
2022-08-02T13:29:22.382Z,19.25
2022-08-02T13:31:49.110Z,19.23
2022-08-02T13:34:16.689Z,19.19
2022-08-02T13:36:43.543Z,19.16
2022-08-02T13:39:12.026Z,19.14
2022-08-02T13:41:38.832Z,19.13
2022-08-02T13:44:10.239Z,19.12
2022-08-02T13:46:45.225Z,19.11
2022-08-02T13:49:18.316Z,19.09
2022-08-02T13:51:46.210Z,19.08
2022-08-02T13:54:12.975Z,19.08
2022-08-02T13:56:39.718Z,19.07
2022-08-02T13:59:55.042Z,19.05
2022-08-02T14:01:54.431Z,19.03
2022-08-02T14:04:21.208Z,19.00
2022-08-02T14:06:47.985Z,18.98
2022-08-02T14:09:17.127Z,18.97
2022-08-02T14:11:45.357Z,18.94
2022-08-02T14:14:16.327Z,18.89
2022-08-02T14:16:44.403Z,18.87
2022-08-02T14:19:16.437Z,18.85
2022-08-02T14:21:46.075Z,18.82
2022-08-02T14:24:15.452Z,18.79
2022-08-02T14:26:42.428Z,18.81
2022-08-02T14:29:09.409Z,18.81
2022-08-02T14:31:41.661Z,18.81
2022-08-02T14:34:10.860Z,18.80
2022-08-02T14:36:38.357Z,18.77
2022-08-02T14:39:05.142Z,18.72
2022-08-02T14:41:54.660Z,18.70
2022-08-02T14:44:20.728Z,18.68
2022-08-02T14:46:47.596Z,18.67
2022-08-02T14:49:24.384Z,18.64
2022-08-02T14:51:56.306Z,18.60
2022-08-02T14:54:30.019Z,18.57
2022-08-02T14:56:57.871Z,18.54
2022-08-02T14:59:24.641Z,18.51
2022-08-02T15:01:51.579Z,18.50
2022-08-02T15:04:18.484Z,18.47
2022-08-02T15:06:45.233Z,18.42
2022-08-02T15:09:13.578Z,18.38
2022-08-02T15:11:47.753Z,18.36
2022-08-02T15:14:22.145Z,18.32
2022-08-02T15:16:57.685Z,18.26
2022-08-02T15:19:28.676Z,18.22
2022-08-02T15:22:13.221Z,18.18
2022-08-02T15:24:44.748Z,18.16
2022-08-02T15:27:13.959Z,18.13
2022-08-02T15:29:41.598Z,18.10
2022-08-02T15:32:08.372Z,18.05
2022-08-02T15:34:35.213Z,18.01
2022-08-02T15:37:02.130Z,17.97
2022-08-02T15:39:28.854Z,17.94
2022-08-02T15:41:55.631Z,17.93
2022-08-02T15:44:22.487Z,17.89
2022-08-02T15:46:49.194Z,17.89
2022-08-02T15:49:16.005Z,17.89
2022-08-02T15:51:42.760Z,17.89
2022-08-02T15:54:09.488Z,17.89
2022-08-02T15:56:36.220Z,17.88
2022-08-02T15:59:03.063Z,17.87
2022-08-02T16:01:37.075Z,17.87
2022-08-02T16:04:06.846Z,17.88
2022-08-02T16:06:34.654Z,17.89
2022-08-02T16:09:01.446Z,17.90
2022-08-02T16:11:28.213Z,17.91
2022-08-02T16:13:55.210Z,17.91
2022-08-02T16:16:30.425Z,17.92
2022-08-02T16:18:57.580Z,17.91
2022-08-02T16:21:24.930Z,17.88
2022-08-02T16:24:02.067Z,17.86
2022-08-02T16:26:34.114Z,17.85
2022-08-02T16:29:01.536Z,17.84
2022-08-02T16:31:28.321Z,17.83
2022-08-02T16:33:57.086Z,17.80
2022-08-02T16:36:25.038Z,17.79
2022-08-02T16:38:52.742Z,17.78
2022-08-02T16:41:19.538Z,17.76
2022-08-02T16:43:46.674Z,17.75
2022-08-02T16:46:13.518Z,17.73
2022-08-02T16:48:40.450Z,17.71
2022-08-02T16:51:13.613Z,17.72
2022-08-02T16:53:59.712Z,17.71
2022-08-02T16:56:30.411Z,17.71
2022-08-02T16:58:59.641Z,17.73
2022-08-02T17:02:03.087Z,17.73
2022-08-02T17:04:30.713Z,17.73
2022-08-02T17:06:59.953Z,17.73
2022-08-02T17:10:04.199Z,17.74
2022-08-02T17:12:16.209Z,17.76
2022-08-02T17:14:54.995Z,17.78
2022-08-02T17:17:33.635Z,17.81
2022-08-02T17:20:05.301Z,17.83
2022-08-02T17:22:32.074Z,17.85
2022-08-02T17:25:04.381Z,17.87
2022-08-02T17:27:31.137Z,17.89
2022-08-02T17:29:59.838Z,17.90
2022-08-02T17:32:29.124Z,17.91
2022-08-02T17:35:00.071Z,17.92
2022-08-02T17:37:30.628Z,17.92
2022-08-02T17:39:59.804Z,17.92
2022-08-02T17:42:26.628Z,17.93
2022-08-02T17:44:54.710Z,17.96
2022-08-02T17:47:30.820Z,17.97
2022-08-02T17:49:58.171Z,17.97
2022-08-02T17:55:14.669Z,17.97
2022-08-02T17:57:57.791Z,17.98
2022-08-02T18:00:31.379Z,18.00
2022-08-02T18:03:00.555Z,18.02
2022-08-02T18:05:39.951Z,18.03
2022-08-02T18:08:14.738Z,18.05
2022-08-02T18:10:44.218Z,18.06
2022-08-02T18:13:10.971Z,18.07
2022-08-02T18:15:38.834Z,18.07
2022-08-02T18:18:05.746Z,18.07
2022-08-02T18:20:32.973Z,18.08
2022-08-02T18:23:00.280Z,18.09
2022-08-02T18:25:37.508Z,18.10
2022-08-02T18:28:10.949Z,18.12
2022-08-02T18:30:37.726Z,18.14
2022-08-02T18:33:54.641Z,18.14
2022-08-02T18:35:52.916Z,18.14
2022-08-02T18:38:22.310Z,18.15
2022-08-02T18:40:51.094Z,18.16
2022-08-02T18:43:18.818Z,18.17
2022-08-02T18:46:06.503Z,18.18
2022-08-02T18:48:38.900Z,18.20
2022-08-02T18:51:11.111Z,18.22
2022-08-02T18:53:42.057Z,18.23
2022-08-02T18:58:59.696Z,18.27
2022-08-02T19:01:32.434Z,18.29
2022-08-02T19:04:02.057Z,18.31
2022-08-02T19:06:29.511Z,18.33
2022-08-02T19:09:10.562Z,18.31
2022-08-02T19:11:48.309Z,18.31
2022-08-02T19:14:24.178Z,18.30
2022-08-02T19:16:56.411Z,18.30
2022-08-02T19:19:29.204Z,18.30
2022-08-02T19:22:18.051Z,18.28
2022-08-02T19:24:45.884Z,18.26
2022-08-02T19:27:14.768Z,18.25
2022-08-02T19:29:50.923Z,18.24
2022-08-02T19:32:41.645Z,18.24
2022-08-02T19:35:19.488Z,18.24
2022-08-02T19:37:52.978Z,18.23
2022-08-02T19:40:24.132Z,18.23
2022-08-02T19:44:24.507Z,18.23
2022-08-02T19:45:49.967Z,18.22
2022-08-02T19:48:23.533Z,18.23
2022-08-02T19:50:55.829Z,18.21
2022-08-02T19:53:46.995Z,18.22
2022-08-02T19:56:21.015Z,18.22
2022-08-02T19:58:52.118Z,18.22
2022-08-02T20:01:25.301Z,18.22
2022-08-02T20:03:54.820Z,18.23
2022-08-02T20:06:29.280Z,18.23
2022-08-02T20:08:59.362Z,18.24
2022-08-02T20:11:34.778Z,18.25
2022-08-02T20:14:04.114Z,18.25
2022-08-02T20:19:18.594Z,18.26
2022-08-02T20:21:55.463Z,18.27
2022-08-02T20:24:26.515Z,18.28
2022-08-02T20:26:53.952Z,18.28
2022-08-02T20:29:43.145Z,18.28
2022-08-02T20:32:07.893Z,18.29
2022-08-02T20:34:36.309Z,18.30
2022-08-02T20:37:59.883Z,18.32
2022-08-02T20:39:51.476Z,18.33
2022-08-02T20:42:23.089Z,18.34
2022-08-02T20:44:54.111Z,18.35
2022-08-02T20:47:27.631Z,18.36
2022-08-02T20:50:14.221Z,18.36
2022-08-02T20:52:42.372Z,18.36
2022-08-02T20:55:17.111Z,18.35
2022-08-02T20:58:00.467Z,18.35
2022-08-02T21:00:28.306Z,18.34
2022-08-02T21:02:55.607Z,18.34
2022-08-02T21:05:43.822Z,18.33
2022-08-02T21:08:14.065Z,18.31
2022-08-02T21:10:43.462Z,18.30
2022-08-02T21:15:58.862Z,18.29
2022-08-02T21:21:18.882Z,18.29
2022-08-02T21:23:48.760Z,18.29
2022-08-02T21:26:27.881Z,18.30
2022-08-02T21:28:56.005Z,18.29
2022-08-02T21:31:22.740Z,18.29
2022-08-02T21:33:57.500Z,18.27
2022-08-02T21:36:34.817Z,18.24
2022-08-02T21:39:04.490Z,18.24
2022-08-02T21:41:39.773Z,18.23
2022-08-02T21:44:17.709Z,18.22
2022-08-02T21:46:49.262Z,18.21
2022-08-02T21:49:17.784Z,18.21
2022-08-02T21:51:49.362Z,18.21
2022-08-02T21:54:21.173Z,18.21
2022-08-02T21:56:49.872Z,18.21
2022-08-02T21:59:17.479Z,18.20
2022-08-02T22:01:53.179Z,18.19
2022-08-02T22:04:21.631Z,18.20
2022-08-02T22:06:48.840Z,18.20
2022-08-02T22:09:42.092Z,18.22
2022-08-02T22:12:04.788Z,18.22
2022-08-02T22:14:36.491Z,18.23
2022-08-02T22:17:08.673Z,18.23
2022-08-02T22:19:36.235Z,18.24
2022-08-02T22:22:03.005Z,18.24
2022-08-02T22:24:30.490Z,18.25
2022-08-02T22:26:57.585Z,18.25
2022-08-02T22:29:24.491Z,18.25
2022-08-02T22:31:52.212Z,18.25
2022-08-02T22:34:26.605Z,18.25
2022-08-02T22:37:05.941Z,18.24
2022-08-02T22:40:08.955Z,18.24
2022-08-02T22:42:36.667Z,18.23
2022-08-02T22:45:09.294Z,18.22
2022-08-02T22:47:38.857Z,18.22
2022-08-02T22:50:17.826Z,18.22
2022-08-02T22:52:50.155Z,18.21
2022-08-02T22:55:18.044Z,18.20
2022-08-02T22:57:56.365Z,18.20
2022-08-02T22:58:46.034Z,18.25
2022-08-02T22:58:48.781Z,17.96
2022-08-02T22:58:55.199Z,18.24
2022-08-02T22:59:02.073Z,18.29
2022-08-02T22:59:11.719Z,18.29
2022-08-02T23:00:24.632Z,18.19
2022-08-02T23:02:51.401Z,18.18
2022-08-02T23:05:18.215Z,18.18
2022-08-02T23:07:44.956Z,18.20
2022-08-02T23:10:11.727Z,18.19
2022-08-02T23:12:38.461Z,18.21
2022-08-02T23:15:05.643Z,18.22
2022-08-02T23:17:52.949Z,18.22
2022-08-02T23:20:19.787Z,18.22
2022-08-02T23:22:46.513Z,18.21
2022-08-02T23:25:14.470Z,18.21
2022-08-02T23:27:50.215Z,18.19
2022-08-02T23:30:17.679Z,18.18
2022-08-02T23:32:44.411Z,18.19
2022-08-02T23:35:17.226Z,18.19
2022-08-02T23:37:58.387Z,18.19
2022-08-02T23:40:39.726Z,18.18
2022-08-02T23:43:14.889Z,18.17
2022-08-02T23:45:44.230Z,18.17
2022-08-02T23:48:10.958Z,18.16
2022-08-02T23:50:37.806Z,18.16
2022-08-02T23:53:04.556Z,18.15
2022-08-02T23:55:31.406Z,18.13
2022-08-02T23:57:58.118Z,18.13
